Time;durP1;ratioP1;P1;durP2;ratioP2;P2;SDS_P1;SDS_P2;PMS_P1;PMS_P2;Temp;Humidity;BMP_temperature;BMP_pressure;BME280_temperature;BME280_humidity;BME280_pressure;Samples;Min_cycle;Max_cycle;Signal;HPM_P1;HPM_P2
2021/07/14 00:02:17;;;;;;;2.10;1.80;;;20.20;99.90;;;;;;5009707;28;20542;-88
2021/07/14 00:04:45;;;;;;;4.43;2.60;;;20.60;99.90;;;;;;5040513;28;20535;-87
2021/07/14 00:07:24;;;;;;;2.33;1.87;;;20.80;99.90;;;;;;5024176;28;20951;-87
2021/07/14 00:09:58;;;;;;;2.30;2.10;;;20.60;99.90;;;;;;5026935;28;20548;-87
2021/07/14 00:12:46;;;;;;;2.10;1.83;;;20.50;99.90;;;;;;5048622;28;20444;-88
2021/07/14 00:24:03;;;;;;;1.60;1.50;;;20.10;99.90;;;;;;5041475;28;20493;-86
2021/07/14 00:26:31;;;;;;;3.63;1.70;;;20.30;99.90;;;;;;5041628;28;20464;-86
2021/07/14 00:28:58;;;;;;;2.70;1.60;;;20.60;99.90;;;;;;5040875;28;20457;-88
2021/07/14 00:31:25;;;;;;;2.40;1.60;;;20.70;99.90;;;;;;5021176;28;20488;-86
2021/07/14 00:33:51;;;;;;;2.70;1.77;;;20.60;99.90;;;;;;5002561;28;20450;-86
2021/07/14 00:36:33;;;;;;;2.13;1.60;;;20.40;99.90;;;;;;5004356;28;20454;-86
2021/07/14 00:39:03;;;;;;;3.37;1.80;;;20.50;99.90;;;;;;5021213;28;20540;-85
2021/07/14 00:41:30;;;;;;;2.47;1.33;;;20.70;99.90;;;;;;5003423;28;20478;-86
2021/07/14 00:43:57;;;;;;;2.53;1.80;;;20.70;99.90;;;;;;5017685;28;20486;-85
2021/07/14 00:46:26;;;;;;;2.57;1.60;;;20.80;99.90;;;;;;4999938;28;20446;-85
2021/07/14 00:48:58;;;;;;;2.20;1.67;;;20.70;99.90;;;;;;5013872;28;20441;-90
2021/07/14 00:51:26;;;;;;;2.23;1.30;;;20.40;99.90;;;;;;5034194;28;20458;-90
2021/07/14 00:53:54;;;;;;;2.83;1.73;;;20.30;99.90;;;;;;5027428;28;20433;-89
2021/07/14 00:56:21;;;;;;;2.00;1.37;;;20.40;99.90;;;;;;5038450;28;20508;-91
2021/07/14 00:58:48;;;;;;;1.80;1.30;;;20.30;99.90;;;;;;5038141;28;20433;-90
2021/07/14 01:01:15;;;;;;;1.63;1.20;;;20.10;99.90;;;;;;5048058;28;20465;-86
2021/07/14 01:03:59;;;;;;;3.13;1.33;;;19.90;99.90;;;;;;5028968;28;20571;-87
2021/07/14 01:06:33;;;;;;;1.17;1.07;;;20.00;99.90;;;;;;5028654;28;20449;-86
2021/07/14 01:09:18;;;;;;;;;;;;;;;;;;;;;
2021/07/14 01:11:57;;;;;;;1.40;1.30;;;20.40;99.90;;;;;;5039723;28;20487;-88
2021/07/14 01:14:37;;;;;;;1.60;1.13;;;20.10;99.90;;;;;;5024851;28;20496;-88
2021/07/14 01:17:11;;;;;;;3.63;1.23;;;20.10;99.90;;;;;;5030015;28;20449;-90
2021/07/14 01:19:56;;;;;;;2.40;1.60;;;20.30;99.90;;;;;;5033902;28;20953;-85
2021/07/14 01:22:55;;;;;;;3.77;1.30;;;20.30;99.90;;;;;;5034468;28;20455;-88
2021/07/14 01:25:53;;;;;;;1.20;0.90;;;20.20;99.90;;;;;;5022522;28;20551;-87
2021/07/14 01:28:27;;;;;;;1.67;1.00;;;20.10;99.90;;;;;;5021820;28;20437;-85
2021/07/14 01:30:55;;;;;;;1.00;1.00;;;20.40;99.90;;;;;;5011357;28;20472;-87
2021/07/14 01:33:28;;;;;;;7.03;1.40;;;20.30;99.90;;;;;;5023705;28;20533;-86
2021/07/14 01:35:58;;;;;;;3.63;1.50;;;20.50;99.90;;;;;;5023022;28;20465;-84
2021/07/14 01:38:26;;;;;;;2.47;1.40;;;20.30;99.90;;;;;;5017957;28;21303;-85
2021/07/14 01:40:58;;;;;;;1.80;1.37;;;20.30;99.90;;;;;;5018699;28;20473;-89
2021/07/14 01:43:26;;;;;;;4.20;1.20;;;20.20;99.90;;;;;;5001874;28;20482;-89
2021/07/14 01:45:56;;;;;;;1.77;0.83;;;20.10;99.90;;;;;;5047531;28;20445;-86
2021/07/14 01:48:25;;;;;;;3.07;1.00;;;20.10;99.90;;;;;;5009613;28;20557;-86
2021/07/14 01:50:53;;;;;;;1.13;0.80;;;20.00;99.90;;;;;;5019476;28;20470;-87
2021/07/14 01:53:20;;;;;;;2.20;1.17;;;19.90;99.90;;;;;;5024528;28;20631;-85
2021/07/14 01:55:48;;;;;;;1.57;1.07;;;20.00;99.90;;;;;;5007689;28;20454;-88
2021/07/14 01:58:17;;;;;;;2.10;1.10;;;20.00;99.90;;;;;;5028646;28;20454;-88
2021/07/14 02:00:46;;;;;;;2.93;0.93;;;20.00;99.90;;;;;;5029044;28;20465;-87
2021/07/14 02:06:04;;;;;;;1.73;1.33;;;20.00;99.90;;;;;;5000525;28;20472;-88
2021/07/14 02:08:34;;;;;;;2.40;0.87;;;20.00;99.90;;;;;;5021286;28;20446;-88
2021/07/14 02:11:01;;;;;;;1.90;0.97;;;19.80;99.90;;;;;;5036048;28;20537;-89
2021/07/14 02:13:38;;;;;;;1.30;0.80;;;20.10;99.90;;;;;;5044441;28;20453;-92
2021/07/14 02:16:08;;;;;;;2.90;0.93;;;20.00;99.90;;;;;;5021756;28;20478;-87
2021/07/14 02:18:40;;;;;;;4.00;1.07;;;19.90;99.90;;;;;;5026650;28;20504;-88
2021/07/14 02:21:07;;;;;;;1.47;1.00;;;19.90;99.90;;;;;;5003690;28;20481;-88
2021/07/14 02:23:36;;;;;;;1.10;0.93;;;19.90;99.90;;;;;;5026500;28;20508;-86
2021/07/14 02:26:04;;;;;;;3.10;1.23;;;19.90;99.90;;;;;;5023767;28;20462;-88
2021/07/14 02:28:31;;;;;;;3.23;1.27;;;19.80;99.90;;;;;;5026593;28;20438;-86
2021/07/14 02:31:06;;;;;;;2.13;1.00;;;19.90;99.90;;;;;;5015064;28;21074;-89
2021/07/14 02:33:34;;;;;;;3.30;1.07;;;19.80;99.90;;;;;;5012993;28;20482;-88
2021/07/14 02:36:04;;;;;;;6.07;1.10;;;19.80;99.90;;;;;;5021803;28;20530;-87
2021/07/14 02:38:41;;;;;;;2.83;1.30;;;19.70;99.90;;;;;;5024560;28;20450;-87
2021/07/14 02:41:15;;;;;;;1.50;1.30;;;19.80;99.90;;;;;;5009322;28;20493;-86
2021/07/14 02:43:47;;;;;;;2.00;1.17;;;19.90;99.90;;;;;;5016493;28;20466;-90
2021/07/14 02:46:29;;;;;;;3.43;1.47;;;19.70;99.90;;;;;;5016509;28;20453;-87
2021/07/14 02:49:08;;;;;;;3.80;1.03;;;19.70;99.90;;;;;;5008688;28;20466;-87
2021/07/14 02:51:39;;;;;;;2.53;1.00;;;20.00;99.90;;;;;;5011035;28;20531;-88
2021/07/14 02:54:24;;;;;;;2.23;1.30;;;20.00;99.90;;;;;;5022863;28;20456;-87
2021/07/14 02:57:00;;;;;;;2.80;1.20;;;20.00;99.90;;;;;;5019570;28;20456;-87
2021/07/14 02:59:33;;;;;;;1.40;1.10;;;19.80;99.90;;;;;;5037387;28;20441;-86
2021/07/14 03:02:01;;;;;;;3.97;1.10;;;19.80;99.90;;;;;;5008631;28;20477;-88
2021/07/14 03:04:32;;;;;;;3.33;1.17;;;19.70;99.90;;;;;;5006292;28;20489;-86
2021/07/14 03:07:02;;;;;;;1.70;1.60;;;19.70;99.90;;;;;;5004873;28;20817;-85
2021/07/14 03:09:37;;;;;;;1.43;1.30;;;20.00;99.90;;;;;;5022931;28;20458;-86
2021/07/14 03:12:09;;;;;;;1.97;1.77;;;20.00;99.90;;;;;;5018728;28;20452;-86
2021/07/14 03:15:14;;;;;;;10.90;2.13;;;20.10;99.90;;;;;;5034221;28;20450;-86
2021/07/14 03:18:04;;;;;;;1.50;1.40;;;20.00;99.90;;;;;;5019614;28;20507;-86
2021/07/14 03:20:46;;;;;;;2.50;1.60;;;20.10;99.90;;;;;;5026113;28;20477;-88
2021/07/14 03:23:37;;;;;;;3.87;1.90;;;20.10;99.90;;;;;;5043227;28;20450;-86
2021/07/14 03:26:06;;;;;;;1.73;1.63;;;20.10;99.90;;;;;;5022609;28;20486;-89
2021/07/14 03:28:34;;;;;;;2.93;1.60;;;20.00;99.90;;;;;;5011222;28;20446;-86
2021/07/14 03:31:02;;;;;;;2.73;2.20;;;19.90;99.90;;;;;;5012545;28;20477;-87
2021/07/14 03:33:30;;;;;;;3.10;2.13;;;19.70;99.90;;;;;;5023853;28;20443;-88
2021/07/14 03:35:58;;;;;;;2.93;2.40;;;19.90;99.90;;;;;;5022971;28;20545;-91
2021/07/14 03:38:34;;;;;;;2.33;2.13;;;19.90;99.90;;;;;;5041653;28;20457;-87
2021/07/14 03:41:02;;;;;;;2.03;1.93;;;20.00;99.90;;;;;;5007412;28;21010;-87
2021/07/14 03:43:30;;;;;;;3.20;1.90;;;19.80;99.90;;;;;;5015593;28;20461;-88
2021/07/14 03:46:00;;;;;;;3.10;1.90;;;19.90;99.90;;;;;;5021494;28;20477;-87
2021/07/14 03:48:32;;;;;;;2.00;1.80;;;19.90;99.90;;;;;;5027018;28;20533;-87
2021/07/14 03:51:39;;;;;;;3.30;1.80;;;19.70;99.90;;;;;;5020937;28;20478;-88
2021/07/14 03:54:31;;;;;;;2.03;1.50;;;19.60;99.90;;;;;;5016737;28;20441;-89
2021/07/14 03:57:11;;;;;;;2.43;1.80;;;19.50;99.90;;;;;;5002847;28;20442;-87
2021/07/14 03:59:54;;;;;;;4.03;2.10;;;19.30;99.90;;;;;;5004584;28;20458;-87
2021/07/14 04:02:55;;;;;;;1.60;1.40;;;19.40;99.90;;;;;;5011565;28;20457;-87
2021/07/14 04:05:22;;;;;;;3.00;1.60;;;19.60;99.90;;;;;;5015057;28;20530;-87
2021/07/14 04:07:53;;;;;;;3.90;1.80;;;19.80;99.90;;;;;;5023842;28;20460;-87
2021/07/14 04:10:49;;;;;;;3.10;2.17;;;19.90;99.90;;;;;;5027359;28;21013;-88
2021/07/14 04:13:16;;;;;;;5.90;1.90;;;19.90;99.90;;;;;;5007296;28;20561;-86
2021/07/14 04:15:46;;;;;;;4.80;1.90;;;19.70;99.90;;;;;;5020021;28;20454;-89
2021/07/14 04:18:26;;;;;;;3.50;2.17;;;19.70;99.90;;;;;;5029737;28;20499;-87
2021/07/14 04:21:10;;;;;;;2.40;1.90;;;20.00;99.90;;;;;;5027291;28;20457;-88
2021/07/14 04:23:37;;;;;;;2.30;1.60;;;19.70;99.90;;;;;;5038580;28;20445;-90
2021/07/14 04:26:03;;;;;;;2.67;1.53;;;19.60;99.90;;;;;;5025954;28;20482;-87
2021/07/14 04:28:32;;;;;;;4.90;1.90;;;19.70;99.90;;;;;;5010565;28;20458;-87
2021/07/14 04:31:00;;;;;;;2.00;1.50;;;19.70;99.90;;;;;;5017488;28;20476;-88
2021/07/14 04:33:26;;;;;;;4.43;2.13;;;19.90;99.90;;;;;;5045177;28;20448;-88
2021/07/14 04:39:17;;;;;;;4.67;2.17;;;19.80;99.90;;;;;;5027891;28;20450;-87
2021/07/14 04:41:44;;;;;;;2.80;1.67;;;19.70;99.90;;;;;;5007359;28;20489;-87
2021/07/14 04:44:14;;;;;;;3.73;1.80;;;19.70;99.90;;;;;;5037839;28;20513;-88
2021/07/14 04:46:40;;;;;;;6.80;2.60;;;19.90;99.90;;;;;;5026931;28;20476;-89
2021/07/14 04:49:53;;;;;;;3.23;1.80;;;20.10;99.90;;;;;;5014417;28;20462;-88
2021/07/14 04:52:33;;;;;;;3.30;2.10;;;20.00;99.90;;;;;;5015549;28;20528;-88
2021/07/14 04:55:53;;;;;;;4.77;2.20;;;20.00;99.90;;;;;;5019695;28;20830;-87
2021/07/14 04:59:09;;;;;;;1.90;1.80;;;20.00;99.90;;;;;;5019768;28;20456;-89
2021/07/14 05:01:50;;;;;;;5.33;2.97;;;19.70;99.90;;;;;;5021077;28;20460;-87
2021/07/14 05:04:17;;;;;;;2.90;2.60;;;19.50;99.90;;;;;;5022934;28;20545;-88
2021/07/14 05:06:45;;;;;;;3.80;2.10;;;19.70;99.90;;;;;;5002564;28;20469;-86
2021/07/14 05:09:12;;;;;;;3.00;2.03;;;19.90;99.90;;;;;;4999741;28;20458;-88
2021/07/14 05:11:39;;;;;;;5.00;2.20;;;19.80;99.90;;;;;;5012199;28;20475;-87
2021/07/14 05:14:05;;;;;;;3.43;2.40;;;19.80;99.90;;;;;;5018111;28;20951;-88
2021/07/14 05:16:32;;;;;;;7.20;2.87;;;19.90;99.90;;;;;;5021211;28;20456;-90
2021/07/14 05:19:02;;;;;;;5.43;3.17;;;19.80;99.90;;;;;;5035248;28;20457;-89
2021/07/14 05:21:42;;;;;;;6.07;4.23;;;19.80;99.90;;;;;;5020664;28;20556;-88
2021/07/14 05:24:19;;;;;;;4.47;2.93;;;19.50;99.90;;;;;;5022768;28;20556;-86
2021/07/14 05:26:46;;;;;;;3.83;3.40;;;19.40;99.90;;;;;;5020220;28;20480;-87
2021/07/14 05:29:13;;;;;;;4.23;3.30;;;19.50;99.90;;;;;;5021531;28;20445;-87
2021/07/14 05:35:22;;;;;;;7.90;3.23;;;19.70;99.90;;;;;;4994617;28;20472;-87
2021/07/14 05:41:17;;;;;;;5.43;2.97;;;20.10;99.90;;;;;;5012127;28;20625;-87
2021/07/14 05:44:26;;;;;;;4.27;3.40;;;20.30;99.90;;;;;;5001857;28;20461;-87
2021/07/14 05:46:53;;;;;;;8.60;7.83;;;20.20;99.90;;;;;;4991430;28;20466;-87
2021/07/14 05:52:35;;;;;;;6.00;4.03;;;20.20;99.90;;;;;;5032275;28;20461;-86
2021/07/14 05:55:04;;;;;;;5.10;3.43;;;20.10;99.90;;;;;;5027967;28;21134;-87
2021/07/14 06:00:52;;;;;;;3.57;2.80;;;19.90;99.90;;;;;;5037524;28;20542;-88
2021/07/14 06:06:46;;;;;;;3.37;3.07;;;20.20;99.90;;;;;;5048702;28;20484;-87
2021/07/14 06:09:13;;;;;;;7.23;3.10;;;20.10;99.90;;;;;;5019636;28;20438;-87
2021/07/14 06:15:18;;;;;;;3.53;2.73;;;19.90;99.90;;;;;;4927113;29;20533;-87
2021/07/14 06:17:44;;;;;;;2.90;2.70;;;19.70;99.90;;;;;;4949349;29;20468;-87
2021/07/14 06:20:12;;;;;;;3.03;2.83;;;19.80;99.90;;;;;;4984916;28;20470;-87
2021/07/14 06:27:00;;;;;;;;;;;;;;;;;;;;;
2021/07/14 06:29:43;;;;;;;5.63;3.17;;;19.90;99.90;;;;;;5024510;28;20541;-88
2021/07/14 06:32:54;;;;;;;;;;;;;;;;;;;;;
2021/07/14 06:36:49;;;;;;;3.23;2.77;;;20.10;99.90;;;;;;5020013;28;20481;-87
2021/07/14 06:40:17;;;;;;;6.30;3.00;;;19.90;99.90;;;;;;5019330;28;20445;-87
2021/07/14 06:42:49;;;;;;;3.77;3.00;;;19.80;99.90;;;;;;5020145;28;20538;-88
2021/07/14 06:45:16;;;;;;;5.50;3.83;;;19.70;99.90;;;;;;5023128;28;20488;-87
2021/07/14 06:47:43;;;;;;;5.10;4.00;;;19.70;99.90;;;;;;5042031;28;20445;-87
2021/07/14 06:50:13;;;;;;;6.33;3.97;;;19.60;99.90;;;;;;5046102;28;20465;-85
2021/07/14 06:52:42;;;;;;;5.37;4.50;;;19.60;99.90;;;;;;5032487;28;20434;-89
2021/07/14 06:55:52;;;;;;;6.40;4.80;;;19.60;99.90;;;;;;5037782;28;20442;-90
2021/07/14 06:58:44;;;;;;;5.00;4.03;;;19.80;99.90;;;;;;4975771;28;20460;-93
2021/07/14 07:01:24;;;;;;;5.60;3.90;;;20.00;99.90;;;;;;4950644;28;20460;-89
2021/07/14 07:03:51;;;;;;;5.27;4.77;;;19.90;99.90;;;;;;4960036;29;20480;-88
2021/07/14 07:06:18;;;;;;;6.73;4.93;;;19.80;99.90;;;;;;4956478;29;20477;-89
2021/07/14 07:09:14;;;;;;;4.47;3.53;;;20.10;99.90;;;;;;4942418;29;20454;-87
2021/07/14 07:12:05;;;;;;;5.87;4.10;;;20.10;99.90;;;;;;4939002;29;20440;-87
2021/07/14 07:17:52;;;;;;;3.77;3.40;;;19.90;99.90;;;;;;4857954;29;20432;-88
2021/07/14 07:21:01;;;;;;;2.80;2.47;;;19.90;99.90;;;;;;4878844;29;20545;-87
2021/07/14 07:28:15;;;;;;;5.13;2.60;;;19.80;99.90;;;;;;4786196;29;20541;-89
2021/07/14 07:31:00;;;;;;;2.43;2.23;;;19.70;99.90;;;;;;4794980;29;20567;-87
2021/07/14 07:33:47;;;;;;;4.83;2.90;;;19.80;99.90;;;;;;4795861;29;20475;-86
2021/07/14 07:37:03;;;;;;;2.60;2.40;;;19.90;99.90;;;;;;4868839;29;20412;-92
2021/07/14 07:39:57;;;;;;;5.17;2.60;;;19.80;99.90;;;;;;4892569;29;20460;-87
2021/07/14 07:42:35;;;;;;;1.40;1.30;;;19.90;99.90;;;;;;4867514;29;20468;-86
2021/07/14 07:45:03;;;;;;;2.20;2.00;;;19.90;99.90;;;;;;4878942;29;20445;-89
2021/07/14 07:47:30;;;;;;;3.70;1.47;;;19.80;99.90;;;;;;4899581;29;20584;-89
2021/07/14 07:49:57;;;;;;;2.10;1.90;;;19.70;99.90;;;;;;4913150;29;20471;-86
2021/07/14 07:52:37;;;;;;;1.70;1.50;;;19.70;99.90;;;;;;4903266;29;20469;-87
2021/07/14 07:55:23;;;;;;;1.70;1.53;;;19.50;99.90;;;;;;4934239;29;20510;-89
2021/07/14 07:58:20;;;;;;;2.13;1.70;;;19.40;99.90;;;;;;4945010;29;20456;-88
2021/07/14 08:01:11;;;;;;;1.93;1.73;;;19.40;99.90;;;;;;4964903;28;20525;-88
2021/07/14 08:03:44;;;;;;;1.50;1.40;;;19.30;99.90;;;;;;4983092;28;20459;-87
2021/07/14 08:06:10;;;;;;;1.90;1.30;;;19.20;99.90;;;;;;5012440;28;20496;-87
2021/07/14 08:08:37;;;;;;;1.13;1.07;;;19.20;99.90;;;;;;5025792;28;20458;-89
2021/07/14 08:11:19;;;;;;;76.70;69.70;;;19.20;99.90;;;;;;5036531;28;20485;-87
2021/07/14 08:14:05;;;;;;;1.93;1.83;;;19.30;99.90;;;;;;5027008;28;20540;-89
2021/07/14 08:16:43;;;;;;;1.33;1.23;;;19.60;99.90;;;;;;5025156;28;20434;-91
2021/07/14 08:19:10;;;;;;;1.60;1.50;;;19.70;99.90;;;;;;5027489;28;20448;-90
2021/07/14 08:21:38;;;;;;;1.50;1.40;;;19.60;99.90;;;;;;5026106;28;20500;-88
2021/07/14 08:24:06;;;;;;;1.73;1.63;;;19.70;99.90;;;;;;5018202;28;20443;-88
2021/07/14 08:26:34;;;;;;;1.63;1.53;;;19.80;99.90;;;;;;5002649;28;20492;-87
2021/07/14 08:29:01;;;;;;;3.30;1.80;;;19.80;99.90;;;;;;5001720;28;20532;-88
2021/07/14 08:31:28;;;;;;;2.17;1.53;;;19.70;99.90;;;;;;5009111;28;20471;-89
2021/07/14 08:33:56;;;;;;;2.53;2.17;;;19.70;99.90;;;;;;5009808;28;20446;-86
2021/07/14 08:36:25;;;;;;;1.40;1.30;;;19.60;99.90;;;;;;5017209;28;21334;-87
2021/07/14 08:38:52;;;;;;;1.67;1.57;;;19.50;99.90;;;;;;5016346;28;20456;-86
2021/07/14 08:41:29;;;;;;;1.30;1.10;;;19.50;99.90;;;;;;5020162;28;20523;-86
2021/07/14 08:44:38;;;;;;;;;;;;;;;;;;;;;
2021/07/14 08:47:47;;;;;;;;;;;;;;;;;;;;;
2021/07/14 08:50:51;;;;;;;1.60;1.50;;;19.90;99.90;;;;;;4942412;28;20480;-87
2021/07/14 08:53:19;;;;;;;3.73;3.37;;;20.00;99.90;;;;;;4956074;28;20484;-86
2021/07/14 08:55:48;;;;;;;1.90;1.60;;;20.20;99.90;;;;;;4953052;29;20457;-87
2021/07/14 08:58:19;;;;;;;2.37;2.27;;;20.00;99.90;;;;;;4960127;28;20449;-87
2021/07/14 09:00:49;;;;;;;1.87;1.50;;;20.00;99.90;;;;;;4967075;28;20472;-87
2021/07/14 09:07:24;;;;;;;1.60;1.50;;;20.00;99.90;;;;;;4972105;28;20547;-87
2021/07/14 09:10:10;;;;;;;2.67;1.90;;;20.40;99.90;;;;;;4942808;29;20460;-88
2021/07/14 09:13:25;;;;;;;2.10;1.90;;;20.10;99.90;;;;;;4965764;28;20895;-87
2021/07/14 09:16:37;;;;;;;2.40;1.90;;;20.20;99.90;;;;;;5004490;28;20445;-87
2021/07/14 09:19:25;;;;;;;2.13;1.83;;;20.20;99.90;;;;;;5003528;28;20521;-87
2021/07/14 09:22:23;;;;;;;2.97;2.00;;;20.00;99.90;;;;;;5011412;28;20541;-87
2021/07/14 09:24:51;;;;;;;2.57;2.17;;;19.70;99.90;;;;;;5011016;28;20460;-87
2021/07/14 09:27:58;;;;;;;2.63;2.10;;;19.70;99.90;;;;;;5012272;28;20482;-87
2021/07/14 09:30:29;;;;;;;2.80;2.37;;;19.80;99.90;;;;;;5022922;28;20540;-86
2021/07/14 09:32:59;;;;;;;2.20;2.00;;;20.10;99.90;;;;;;5024209;28;20454;-87
2021/07/14 09:35:34;;;;;;;2.67;2.33;;;20.00;99.90;;;;;;5007423;28;20465;-86
2021/07/14 09:38:14;;;;;;;2.00;1.90;;;19.80;99.90;;;;;;5009079;28;20496;-87
2021/07/14 09:40:45;;;;;;;2.43;2.23;;;19.70;99.90;;;;;;5010908;28;20477;-86
2021/07/14 09:43:17;;;;;;;2.73;2.47;;;19.70;99.90;;;;;;5011624;28;20459;-86
2021/07/14 09:45:51;;;;;;;2.40;2.20;;;19.60;99.90;;;;;;5008847;28;20498;-86
2021/07/14 09:49:16;;;;;;;2.93;2.50;;;19.60;99.90;;;;;;5027869;28;20463;-86
2021/07/14 09:51:42;;;;;;;2.93;2.37;;;19.60;99.90;;;;;;4941640;29;20955;-88
2021/07/14 09:54:19;;;;;;;2.40;2.20;;;19.80;99.90;;;;;;5019008;28;21141;-87
2021/07/14 09:56:50;;;;;;;2.57;2.37;;;19.70;99.90;;;;;;5017194;28;20452;-88
2021/07/14 09:59:19;;;;;;;3.60;3.00;;;19.90;99.90;;;;;;5028974;28;20532;-87
2021/07/14 10:01:48;;;;;;;2.60;2.40;;;20.10;99.90;;;;;;5037958;28;20565;-85
2021/07/14 10:04:25;;;;;;;2.90;2.60;;;19.90;99.90;;;;;;5037605;28;20453;-87
2021/07/14 10:07:26;;;;;;;3.23;2.93;;;19.90;99.90;;;;;;5020773;28;20557;-88
2021/07/14 10:10:22;;;;;;;3.67;3.30;;;20.30;99.90;;;;;;4976166;28;21125;-90
2021/07/14 10:13:10;;;;;;;3.00;2.70;;;20.60;99.90;;;;;;4998889;28;20532;-85
2021/07/14 10:19:33;;;;;;;2.90;2.70;;;20.60;99.90;;;;;;4937351;29;20500;-88
2021/07/14 10:22:10;;;;;;;2.43;2.23;;;20.50;99.90;;;;;;4930119;29;21006;-86
2021/07/14 10:25:00;;;;;;;2.17;1.97;;;20.30;99.90;;;;;;4962973;28;20444;-86
2021/07/14 10:28:09;;;;;;;3.47;2.07;;;20.20;99.90;;;;;;4951745;28;20918;-89
2021/07/14 10:31:32;;;;;;;2.17;2.07;;;19.90;99.90;;;;;;4986574;28;20477;-89
2021/07/14 10:34:26;;;;;;;2.87;2.57;;;19.70;99.90;;;;;;5025907;28;20430;-88
2021/07/14 10:37:21;;;;;;;3.20;2.60;;;19.70;99.90;;;;;;5002988;28;20548;-88
2021/07/14 10:44:00;;;;;;;3.70;2.60;;;19.90;99.90;;;;;;5026694;28;20483;-85
2021/07/14 10:46:53;;;;;;;2.40;1.93;;;19.70;99.90;;;;;;4938883;29;20505;-86
2021/07/14 10:54:55;;;;;;;3.30;2.90;;;20.00;99.90;;;;;;5173977;23;20497;-86
2021/07/14 10:57:23;;;;;;;5.00;4.10;;;19.90;99.90;;;;;;5023821;28;20430;-85
2021/07/14 10:59:50;;;;;;;5.00;3.47;;;19.80;99.90;;;;;;5041488;28;21001;-86
2021/07/14 11:02:17;;;;;;;4.27;3.87;;;19.90;99.90;;;;;;5024052;28;20457;-86
2021/07/14 11:12:38;;;;;;;3.30;2.70;;;20.10;99.90;;;;;;4977056;29;20436;-86
2021/07/14 11:23:25;;;;;;;2.13;1.93;;;20.00;99.90;;;;;;4917206;29;20455;-88
2021/07/14 11:25:55;;;;;;;2.43;2.00;;;20.10;99.90;;;;;;4992991;28;20542;-88
2021/07/14 11:28:23;;;;;;;1.53;1.43;;;20.10;99.90;;;;;;4986691;28;20455;-85
2021/07/14 11:31:00;;;;;;;1.50;1.40;;;20.10;99.90;;;;;;5002899;28;20475;-85
2021/07/14 11:33:34;;;;;;;1.77;1.43;;;19.80;99.90;;;;;;5002928;28;20475;-85
2021/07/14 11:36:52;;;;;;;1.70;1.30;;;19.70;99.90;;;;;;5016806;28;20461;-85
2021/07/14 11:44:51;;;;;;;1.20;1.10;;;19.90;99.90;;;;;;5017666;28;20465;-85
2021/07/14 11:47:37;;;;;;;1.93;0.97;;;19.80;99.90;;;;;;5019208;28;20478;-86
2021/07/14 11:50:05;;;;;;;1.40;1.30;;;19.70;99.90;;;;;;4997622;28;20549;-85
2021/07/14 11:52:46;;;;;;;2.10;1.27;;;20.10;99.90;;;;;;4980870;28;20833;-86
2021/07/14 11:58:50;;;;;;;1.50;1.40;;;20.10;99.90;;;;;;4985993;28;20461;-87
2021/07/14 12:01:18;;;;;;;2.87;1.87;;;20.00;99.90;;;;;;4991834;28;20471;-87
2021/07/14 12:04:00;;;;;;;1.63;1.23;;;19.70;99.90;;;;;;4997954;28;20457;-87
2021/07/14 12:06:48;;;;;;;1.80;1.57;;;19.60;99.90;;;;;;5000478;28;20496;-88
2021/07/14 12:09:18;;;;;;;1.03;1.03;;;20.00;99.90;;;;;;4979707;28;20480;-87
2021/07/14 12:12:15;;;;;;;1.67;1.47;;;20.00;99.90;;;;;;4980420;28;20439;-87
2021/07/14 12:15:43;;;;;;;1.63;1.53;;;19.80;99.90;;;;;;4968081;28;20448;-86
2021/07/14 12:22:50;;;;;;;7.20;6.50;;;19.30;99.90;;;;;;4908091;29;20475;-86
2021/07/14 12:25:31;;;;;;;7.60;4.37;;;19.40;99.90;;;;;;4819319;29;20462;-86
2021/07/14 12:27:58;;;;;;;4.27;2.50;;;19.50;99.90;;;;;;4916030;29;20481;-85
2021/07/14 12:30:24;;;;;;;3.90;1.90;;;19.80;99.90;;;;;;4919696;29;20473;-86
2021/07/14 12:32:53;;;;;;;3.70;2.00;;;19.70;99.90;;;;;;4922428;29;20466;-86
2021/07/14 12:35:30;;;;;;;2.10;0.90;;;19.60;99.90;;;;;;4941672;29;20465;-85
2021/07/14 12:38:33;;;;;;;1.00;1.00;;;19.60;99.90;;;;;;4904445;29;20461;-85
2021/07/14 12:41:26;;;;;;;1.90;1.50;;;20.00;99.90;;;;;;5016495;23;20498;-86
2021/07/14 12:44:10;;;;;;;1.43;1.30;;;19.90;99.90;;;;;;5003112;28;20446;-85
2021/07/14 12:47:13;;;;;;;1.57;1.27;;;19.60;99.90;;;;;;5002977;28;20852;-85
2021/07/14 12:49:41;;;;;;;1.90;1.40;;;19.50;99.90;;;;;;5053257;23;20438;-84
2021/07/14 12:52:18;;;;;;;1.47;1.00;;;19.60;99.90;;;;;;5021113;28;20461;-89
2021/07/14 12:55:58;;;;;;;1.13;1.00;;;19.80;99.90;;;;;;5017171;28;20427;-89
2021/07/14 12:59:00;;;;;;;0.90;0.90;;;19.90;99.90;;;;;;4962450;28;20397;-87
2021/07/14 13:05:01;;;;;;;2.50;1.30;;;19.70;99.90;;;;;;5001018;28;20557;-87
2021/07/14 13:07:30;;;;;;;1.30;1.20;;;19.90;99.90;;;;;;5014586;28;20481;-87
2021/07/14 13:10:57;;;;;;;2.10;1.30;;;19.80;99.90;;;;;;5017794;28;20488;-86
2021/07/14 13:13:50;;;;;;;1.20;1.10;;;19.80;99.90;;;;;;4996726;28;20454;-87
2021/07/14 13:16:25;;;;;;;1.70;1.30;;;19.70;99.90;;;;;;5013666;28;20458;-86
2021/07/14 13:18:54;;;;;;;4.97;1.50;;;19.50;99.90;;;;;;5019750;28;20442;-86
2021/07/14 13:21:23;;;;;;;1.10;1.00;;;19.50;99.90;;;;;;5011709;28;20476;-82
2021/07/14 13:24:41;;;;;;;2.57;2.30;;;19.40;99.90;;;;;;5002459;28;20462;-86
2021/07/14 13:27:27;;;;;;;1.30;1.20;;;19.90;99.90;;;;;;4918782;29;21050;-84
2021/07/14 13:29:54;;;;;;;1.23;1.13;;;20.20;99.90;;;;;;4923579;29;20465;-88
2021/07/14 13:32:20;;;;;;;1.60;1.10;;;20.20;99.90;;;;;;4996028;28;20462;-87
2021/07/14 13:34:48;;;;;;;1.00;1.00;;;20.10;99.90;;;;;;5031751;28;20453;-88
2021/07/14 13:37:25;;;;;;;1.07;0.97;;;20.00;99.90;;;;;;5044179;28;20460;-85
2021/07/14 13:43:47;;;;;;;1.70;1.20;;;20.00;99.90;;;;;;5014210;28;20486;-87
2021/07/14 14:03:20;;;;;;;1.30;1.10;;;19.70;99.90;;;;;;5044016;28;20540;-87
2021/07/14 14:06:26;;;;;;;1.53;1.20;;;19.70;99.90;;;;;;4951006;29;20509;-87
2021/07/14 14:09:21;;;;;;;1.20;1.10;;;19.80;99.90;;;;;;4948275;29;20460;-86
2021/07/14 14:11:49;;;;;;;1.70;1.60;;;19.90;99.90;;;;;;4956050;29;20748;-90
2021/07/14 14:14:22;;;;;;;2.10;1.90;;;20.00;99.90;;;;;;5030055;28;20458;-90
2021/07/14 14:17:03;;;;;;;2.13;1.80;;;19.90;99.90;;;;;;4996072;28;21013;-86
2021/07/14 14:19:29;;;;;;;4.53;3.57;;;20.00;99.90;;;;;;5021705;28;20419;-88
2021/07/14 14:21:57;;;;;;;6.47;5.77;;;20.10;99.90;;;;;;5021180;28;20454;-85
2021/07/14 14:25:11;;;;;;;7.87;7.07;;;20.10;99.90;;;;;;5018098;28;20757;-89
2021/07/14 14:28:10;;;;;;;2.60;1.90;;;20.20;99.90;;;;;;4989054;28;20486;-88
2021/07/14 14:30:43;;;;;;;2.03;1.83;;;20.10;99.90;;;;;;5014612;28;20484;-87
2021/07/14 14:33:11;;;;;;;2.03;1.83;;;20.00;99.90;;;;;;5005320;28;21071;-87
2021/07/14 14:35:39;;;;;;;2.63;1.60;;;19.80;99.90;;;;;;5002215;28;20458;-88
2021/07/14 14:38:09;;;;;;;2.77;1.70;;;19.80;99.90;;;;;;5037484;28;20541;-90
2021/07/14 14:40:45;;;;;;;1.63;1.20;;;19.70;99.90;;;;;;5020893;28;20484;-90
2021/07/14 14:43:19;;;;;;;3.43;1.40;;;19.90;99.90;;;;;;5015505;28;20509;-88
2021/07/14 14:45:49;;;;;;;1.27;1.20;;;19.90;99.90;;;;;;5010274;28;20466;-87
2021/07/14 14:48:25;;;;;;;1.40;1.30;;;20.00;99.90;;;;;;5009129;28;20462;-86
2021/07/14 14:51:00;;;;;;;4.97;2.07;;;20.10;99.90;;;;;;5009529;28;20478;-87
2021/07/14 14:53:31;;;;;;;2.13;1.20;;;20.10;99.90;;;;;;5006832;28;20450;-88
2021/07/14 14:56:03;;;;;;;3.60;2.13;;;20.00;99.90;;;;;;5022514;28;20454;-87
2021/07/14 14:58:41;;;;;;;4.00;2.30;;;20.00;99.90;;;;;;5004232;28;20463;-86
2021/07/14 15:01:23;;;;;;;3.60;2.20;;;19.90;99.90;;;;;;4989933;28;20849;-89
2021/07/14 15:03:58;;;;;;;2.20;1.60;;;19.80;99.90;;;;;;4986656;28;20447;-86
2021/07/14 15:06:25;;;;;;;2.43;1.53;;;19.80;99.90;;;;;;5008514;28;20495;-86
2021/07/14 15:08:51;;;;;;;1.90;1.67;;;19.90;99.90;;;;;;4989706;28;20446;-86
2021/07/14 15:11:37;;;;;;;1.60;1.40;;;19.70;99.90;;;;;;5003639;28;20486;-85
2021/07/14 15:14:26;;;;;;;;;;;;;;;;;;;;;
2021/07/14 15:16:57;;;;;;;1.60;1.47;;;19.70;99.90;;;;;;5022540;28;21117;-87
2021/07/14 15:19:32;;;;;;;2.50;2.20;;;19.80;99.90;;;;;;5016660;28;20527;-86
2021/07/14 15:22:03;;;;;;;1.70;1.60;;;19.80;99.90;;;;;;5002468;28;20454;-88
2021/07/14 15:24:31;;;;;;;2.40;2.10;;;19.70;99.90;;;;;;5021802;28;21125;-87
2021/07/14 15:29:43;;;;;;;1.43;1.33;;;19.50;99.90;;;;;;5006666;28;20523;-87
2021/07/14 15:32:10;;;;;;;1.40;1.30;;;19.70;99.90;;;;;;4985081;28;20461;-87
2021/07/14 15:34:36;;;;;;;1.63;0.97;;;19.80;99.90;;;;;;4998555;28;20436;-87
2021/07/14 15:37:03;;;;;;;1.53;1.37;;;19.50;99.90;;;;;;5023184;28;20447;-87
2021/07/14 15:39:31;;;;;;;1.37;1.07;;;19.40;99.90;;;;;;5022938;28;20450;-86
2021/07/14 15:41:58;;;;;;;1.37;0.83;;;19.50;99.90;;;;;;5004556;28;20533;-88
2021/07/14 15:44:34;;;;;;;2.20;1.23;;;19.50;99.90;;;;;;4989301;28;20488;-87
2021/07/14 15:47:05;;;;;;;1.10;1.00;;;19.50;99.90;;;;;;4985378;28;20486;-87
2021/07/14 15:49:32;;;;;;;0.77;0.70;;;19.50;99.90;;;;;;5010898;28;20462;-87
2021/07/14 15:51:58;;;;;;;1.57;1.00;;;19.60;99.90;;;;;;5018935;28;20442;-88